Time;durP1;ratioP1;P1;durP2;ratioP2;P2;SDS_P1;SDS_P2;PMS_P1;PMS_P2;Temp;Humidity;BMP_temperature;BMP_pressure;BME280_temperature;BME280_humidity;BME280_pressure;Samples;Min_cycle;Max_cycle;Signal;HPM_P1;HPM_P2
2021/03/26 00:01:56;;;;;;;18.67;12.00;;;8.70;1.00;;;;;;5094591;28;20421;-70
2021/03/26 00:04:22;;;;;;;18.70;12.70;;;8.80;99.90;;;;;;5095955;28;20390;-70
2021/03/26 00:06:48;;;;;;;26.00;13.33;;;8.80;99.90;;;;;;5096148;28;20442;-70
2021/03/26 00:09:24;;;;;;;16.63;12.07;;;8.70;99.90;;;;;;5095782;28;20183;-70
2021/03/26 00:11:50;;;;;;;20.70;13.40;;;8.60;99.90;;;;;;5095879;28;20187;-70
2021/03/26 00:14:16;;;;;;;20.60;13.00;;;8.60;99.90;;;;;;5095756;28;20410;-70
2021/03/26 00:16:42;;;;;;;17.17;12.30;;;8.80;1.00;;;;;;5095702;28;20534;-69
2021/03/26 00:19:08;;;;;;;18.27;12.97;;;8.80;99.90;;;;;;5095622;28;20410;-70
2021/03/26 00:21:34;;;;;;;21.73;13.60;;;8.80;99.90;;;;;;5095530;28;20220;-69
2021/03/26 00:23:59;;;;;;;18.40;13.43;;;8.80;99.90;;;;;;5095596;28;20953;-70
2021/03/26 00:26:25;;;;;;;18.70;12.37;;;8.90;99.90;;;;;;5095506;28;20944;-70
2021/03/26 00:28:51;;;;;;;18.57;14.13;;;8.80;99.90;;;;;;5095670;28;20172;-70
2021/03/26 00:31:16;;;;;;;16.03;12.13;;;8.70;99.90;;;;;;5095629;28;20168;-70
2021/03/26 00:33:42;;;;;;;20.57;14.17;;;8.50;99.90;;;;;;5095425;28;20187;-70
2021/03/26 00:36:08;;;;;;;24.23;14.50;;;8.60;1.00;;;;;;5095596;28;20194;-70
2021/03/26 00:38:34;;;;;;;15.90;13.37;;;8.60;99.90;;;;;;5095084;28;20549;-70
2021/03/26 00:41:00;;;;;;;23.33;14.10;;;8.60;1.00;;;;;;5095323;28;20164;-70
2021/03/26 00:43:25;;;;;;;18.37;13.40;;;8.50;1.00;;;;;;5095242;28;20240;-70
2021/03/26 00:45:51;;;;;;;18.63;15.07;;;8.50;1.00;;;;;;5095049;28;20412;-70
2021/03/26 00:48:19;;;;;;;18.47;14.00;;;8.40;1.00;;;;;;5093895;28;20177;-70
2021/03/26 00:50:48;;;;;;;21.00;14.00;;;8.50;1.00;;;;;;5095142;28;20405;-70
2021/03/26 00:53:19;;;;;;;18.47;14.90;;;8.50;1.00;;;;;;5094741;28;20467;-70
2021/03/26 00:55:44;;;;;;;18.90;14.27;;;8.50;1.00;;;;;;5094782;28;20440;-70
2021/03/26 00:58:10;;;;;;;20.03;14.80;;;8.30;1.00;;;;;;5094707;28;20941;-70
2021/03/26 01:00:37;;;;;;;18.00;12.37;;;8.30;1.00;;;;;;5094683;28;20170;-70
2021/03/26 01:03:03;;;;;;;21.80;13.53;;;8.30;89.50;;;;;;5094626;28;20184;-70
2021/03/26 01:05:32;;;;;;;24.00;14.37;;;8.40;1.00;;;;;;5094667;28;20507;-70
2021/03/26 01:07:58;;;;;;;25.13;15.10;;;8.40;1.00;;;;;;5094461;28;20435;-70
2021/03/26 01:10:30;;;;;;;26.87;15.30;;;8.30;1.00;;;;;;5093714;28;20438;-70
2021/03/26 01:12:57;;;;;;;18.70;14.37;;;8.30;1.00;;;;;;5094509;28;20207;-70
2021/03/26 01:15:27;;;;;;;24.70;16.20;;;8.20;1.00;;;;;;5094408;28;20402;-70
2021/03/26 01:17:54;;;;;;;25.07;14.40;;;8.40;9.00;;;;;;5094584;28;20402;-70
2021/03/26 01:20:24;;;;;;;24.97;14.17;;;8.20;1.00;;;;;;5094607;28;20414;-70
2021/03/26 01:22:50;;;;;;;21.40;14.07;;;8.10;34.40;;;;;;5094156;28;20445;-70
2021/03/26 01:25:24;;;;;;;28.20;13.60;;;7.90;92.70;;;;;;5094187;28;20413;-68
2021/03/26 01:27:49;;;;;;;20.07;13.10;;;7.90;99.90;;;;;;5094824;28;20742;-70
2021/03/26 01:30:18;;;;;;;22.40;15.00;;;8.10;99.90;;;;;;5094103;28;20486;-70
2021/03/26 01:32:44;;;;;;;21.75;15.05;;;8.10;1.00;;;;;;5094308;28;20210;-70
2021/03/26 01:35:11;;;;;;;20.50;14.10;;;8.20;1.00;;;;;;5094133;28;20168;-70
2021/03/26 01:37:37;;;;;;;23.97;14.30;;;8.10;1.00;;;;;;5093926;28;20167;-70
2021/03/26 01:40:05;;;;;;;18.53;13.40;;;7.90;24.70;;;;;;5094207;28;20538;-70
2021/03/26 01:42:33;;;;;;;17.40;13.70;;;7.70;99.90;;;;;;5093831;28;20467;-70
2021/03/26 01:45:00;;;;;;;20.67;14.10;;;7.70;1.00;;;;;;5094121;28;20397;-70
2021/03/26 01:47:27;;;;;;;25.00;14.80;;;7.60;99.90;;;;;;5094040;28;20405;-70
2021/03/26 01:49:53;;;;;;;21.50;14.50;;;7.90;1.00;;;;;;5093840;28;20403;-69
2021/03/26 01:52:18;;;;;;;18.47;13.80;;;7.90;99.90;;;;;;5093770;28;20818;-70
2021/03/26 01:54:44;;;;;;;29.63;15.33;;;8.00;99.90;;;;;;5093648;28;20221;-70
2021/03/26 01:57:10;;;;;;;25.83;15.30;;;8.00;99.90;;;;;;5093847;28;20221;-69
2021/03/26 01:59:36;;;;;;;17.83;13.30;;;7.70;99.90;;;;;;5093602;28;20558;-70
2021/03/26 02:02:19;;;;;;;23.13;13.87;;;7.60;99.90;;;;;;5093665;28;20478;-70
2021/03/26 02:04:47;;;;;;;24.10;13.73;;;7.50;99.90;;;;;;5093552;28;20853;-69
2021/03/26 02:07:15;;;;;;;18.93;13.90;;;7.50;17.70;;;;;;5093446;28;20423;-70
2021/03/26 02:09:41;;;;;;;24.57;15.13;;;7.50;1.00;;;;;;5093323;28;20517;-70
2021/03/26 02:12:25;;;;;;;18.73;13.82;;;7.40;1.00;;;;;;5093220;28;20480;-70
2021/03/26 02:15:00;;;;;;;21.05;14.43;;;7.30;90.00;;;;;;5093340;28;20159;-69
2021/03/26 02:17:31;;;;;;;22.75;14.75;;;7.40;1.00;;;;;;5093485;28;20160;-68
2021/03/26 02:20:12;;;;;;;23.77;14.60;;;7.50;99.90;;;;;;5093522;28;20213;-70
2021/03/26 02:22:38;;;;;;;28.47;15.70;;;7.60;1.00;;;;;;5092877;28;20244;-70
2021/03/26 02:25:10;;;;;;;19.87;14.30;;;7.50;1.00;;;;;;5093326;28;20417;-70
2021/03/26 02:27:37;;;;;;;24.45;14.50;;;7.40;1.00;;;;;;5093010;28;20173;-70
2021/03/26 02:30:26;;;;;;;23.45;15.27;;;7.50;45.90;;;;;;5093084;28;20164;-69
2021/03/26 02:32:54;;;;;;;20.05;14.32;;;7.40;99.90;;;;;;5092845;28;20319;-70
2021/03/26 02:35:30;;;;;;;19.70;14.23;;;7.30;1.00;;;;;;5093000;28;20164;-69
2021/03/26 02:38:14;;;;;;;20.98;13.75;;;7.40;1.00;;;;;;5093427;28;20413;-70
2021/03/26 02:40:48;;;;;;;23.52;14.85;;;7.20;99.90;;;;;;5093015;28;20540;-69
2021/03/26 02:43:38;;;;;;;22.40;15.60;;;7.10;1.00;;;;;;5092970;28;20201;-69
2021/03/26 02:46:21;;;;;;;22.17;15.23;;;7.00;99.90;;;;;;5093088;28;20224;-70
2021/03/26 02:48:58;;;;;;;19.75;13.60;;;7.20;45.10;;;;;;5093467;28;20160;-70
2021/03/26 02:51:39;;;;;;;20.20;13.85;;;7.10;1.00;;;;;;5092761;28;20648;-69
2021/03/26 02:54:26;;;;;;;22.13;14.13;;;7.10;1.00;;;;;;5093278;28;20162;-70
2021/03/26 02:57:00;;;;;;;18.25;14.65;;;7.20;1.00;;;;;;5093373;28;20187;-69
2021/03/26 02:59:38;;;;;;;22.60;15.40;;;7.00;1.00;;;;;;5093443;28;20165;-70
2021/03/26 03:02:06;;;;;;;23.67;14.05;;;7.10;1.00;;;;;;5092913;28;20198;-70
2021/03/26 03:04:40;;;;;;;24.30;16.13;;;7.00;99.90;;;;;;5092722;28;20163;-70
2021/03/26 03:07:35;;;;;;;26.42;17.05;;;7.10;99.90;;;;;;5093083;28;20841;-69
2021/03/26 03:10:29;;;;;;;18.88;14.07;;;7.10;1.00;;;;;;5093462;28;20176;-69
2021/03/26 03:13:09;;;;;;;21.58;14.65;;;7.20;1.00;;;;;;5092654;28;20225;-69
2021/03/26 03:15:41;;;;;;;21.43;16.10;;;7.20;1.00;;;;;;5092951;28;20159;-70
2021/03/26 03:18:22;;;;;;;23.13;15.07;;;7.20;1.00;;;;;;5093022;28;20389;-69
2021/03/26 03:21:05;;;;;;;32.20;17.08;;;7.20;1.00;;;;;;5093086;28;20162;-69
2021/03/26 03:24:07;;;;;;;26.50;15.63;;;7.10;80.50;;;;;;5092622;28;20563;-69
2021/03/26 03:27:27;;;;;;;23.27;15.00;;;7.30;33.70;;;;;;5092573;28;20521;-70
2021/03/26 03:30:34;;;;;;;23.35;15.48;;;7.30;1.00;;;;;;5010602;28;20269;-70
2021/03/26 03:33:25;;;;;;;21.00;14.77;;;7.10;1.00;;;;;;5080147;28;20261;-70
2021/03/26 03:35:59;;;;;;;24.90;16.10;;;7.10;99.90;;;;;;5096385;28;20403;-70
2021/03/26 03:38:51;;;;;;;27.83;16.88;;;6.90;99.90;;;;;;5096454;28;20174;-70
2021/03/26 03:41:40;;;;;;;20.80;15.80;;;7.00;1.00;;;;;;5096541;28;20147;-70
2021/03/26 03:44:32;;;;;;;27.90;16.55;;;6.90;1.00;;;;;;5096520;28;20647;-71
2021/03/26 03:47:14;;;;;;;22.67;15.85;;;6.90;23.80;;;;;;5096243;28;20162;-71
2021/03/26 03:49:57;;;;;;;24.48;15.77;;;6.90;99.90;;;;;;5094824;28;20164;-70
2021/03/26 03:52:37;;;;;;;23.10;14.90;;;6.90;1.00;;;;;;5096215;28;20290;-70
2021/03/26 03:55:12;;;;;;;26.23;15.15;;;7.00;99.90;;;;;;5095967;28;20174;-70
2021/03/26 03:57:49;;;;;;;25.23;15.75;;;7.00;99.90;;;;;;5094643;28;20167;-70
2021/03/26 04:00:28;;;;;;;23.92;15.30;;;6.80;99.90;;;;;;5095814;28;20249;-70
2021/03/26 04:03:13;;;;;;;24.27;16.02;;;6.90;1.00;;;;;;5095741;28;20190;-70
2021/03/26 04:05:50;;;;;;;23.50;15.90;;;6.90;1.00;;;;;;5095702;28;20167;-70
2021/03/26 04:08:22;;;;;;;23.23;15.00;;;6.90;1.00;;;;;;5095666;28;20190;-70
2021/03/26 04:11:11;;;;;;;31.42;17.15;;;6.80;99.90;;;;;;5095763;28;20391;-70
2021/03/26 04:13:49;;;;;;;25.65;15.95;;;6.80;1.00;;;;;;5095482;28;20576;-70
2021/03/26 04:16:19;;;;;;;27.88;16.10;;;6.80;99.90;;;;;;5095697;28;20187;-70
2021/03/26 04:18:53;;;;;;;23.85;16.52;;;6.80;1.00;;;;;;5095652;28;20640;-70
2021/03/26 04:21:27;;;;;;;19.77;14.38;;;6.70;99.90;;;;;;5095508;28;20163;-70
2021/03/26 04:24:08;;;;;;;28.52;15.65;;;6.60;1.00;;;;;;5095665;28;20191;-70
2021/03/26 04:26:39;;;;;;;25.67;16.30;;;6.60;99.90;;;;;;5095421;28;20289;-70
2021/03/26 04:29:32;;;;;;;21.92;15.07;;;6.60;99.90;;;;;;5095631;28;20151;-70
2021/03/26 04:32:06;;;;;;;23.13;15.20;;;6.60;99.90;;;;;;5095195;28;20236;-70
2021/03/26 04:34:32;;;;;;;26.42;16.80;;;6.70;99.90;;;;;;5095552;28;20182;-70
2021/03/26 04:37:10;;;;;;;26.80;16.83;;;6.60;99.90;;;;;;5095443;28;20168;-70
2021/03/26 04:39:47;;;;;;;22.83;16.08;;;6.60;1.00;;;;;;5095118;28;20452;-70
2021/03/26 04:42:25;;;;;;;32.63;16.52;;;6.60;1.00;;;;;;5095087;28;20611;-70
2021/03/26 04:44:54;;;;;;;24.02;16.17;;;6.60;99.90;;;;;;5094246;28;20156;-70
2021/03/26 04:47:20;;;;;;;22.70;16.10;;;6.50;99.90;;;;;;5095215;28;20228;-70
2021/03/26 04:49:54;;;;;;;29.23;17.03;;;6.70;1.00;;;;;;5094960;28;20171;-70
2021/03/26 04:52:35;;;;;;;23.88;16.30;;;6.80;99.90;;;;;;5095057;28;20210;-70
2021/03/26 04:55:14;;;;;;;24.45;17.52;;;6.90;99.90;;;;;;5093623;28;20163;-70
2021/03/26 04:57:50;;;;;;;28.77;16.20;;;6.70;99.90;;;;;;5094882;28;20687;-70
2021/03/26 05:00:42;;;;;;;28.10;18.42;;;6.80;99.90;;;;;;5095003;28;20186;-70
2021/03/26 05:03:20;;;;;;;27.63;16.90;;;6.70;99.90;;;;;;5094666;28;20222;-70
2021/03/26 05:05:52;;;;;;;24.75;17.80;;;6.70;99.90;;;;;;5094918;28;20573;-70
2021/03/26 05:08:19;;;;;;;30.08;16.88;;;6.60;99.90;;;;;;5094591;28;20190;-70
2021/03/26 05:10:47;;;;;;;25.83;17.20;;;6.60;1.00;;;;;;5094561;28;20178;-71
2021/03/26 05:13:17;;;;;;;26.75;16.80;;;6.60;99.90;;;;;;5094681;28;20607;-70
2021/03/26 05:15:52;;;;;;;24.63;15.20;;;6.70;99.90;;;;;;5094991;28;20544;-70
2021/03/26 05:18:41;;;;;;;28.38;17.55;;;6.60;99.90;;;;;;5094373;28;20151;-70
2021/03/26 05:21:21;;;;;;;29.05;18.58;;;6.60;99.90;;;;;;5095141;28;20652;-70
2021/03/26 05:23:59;;;;;;;27.52;17.27;;;6.60;99.90;;;;;;5094454;28;20291;-70
2021/03/26 05:26:26;;;;;;;32.83;17.98;;;6.50;1.00;;;;;;5094271;28;20155;-70
2021/03/26 05:28:52;;;;;;;31.17;18.92;;;6.60;1.00;;;;;;5094126;28;20202;-70
2021/03/26 05:31:51;;;;;;;32.57;19.80;;;6.50;1.00;;;;;;5094372;28;20171;-70
2021/03/26 05:34:20;;;;;;;29.58;18.10;;;6.60;1.00;;;;;;5090337;28;20405;-70
2021/03/26 05:36:55;;;;;;;28.70;19.35;;;6.50;99.90;;;;;;5094286;28;20176;-70
2021/03/26 05:39:28;;;;;;;29.40;18.42;;;6.50;1.00;;;;;;5094332;28;20159;-71
2021/03/26 05:42:29;;;;;;;42.28;20.35;;;6.50;99.90;;;;;;5094330;28;20687;-70
2021/03/26 05:45:34;;;;;;;25.33;18.30;;;6.50;1.00;;;;;;5092558;28;20513;-70
2021/03/26 05:48:11;;;;;;;37.47;20.83;;;6.50;1.00;;;;;;5094041;28;20160;-70
2021/03/26 05:51:08;;;;;;;31.80;19.83;;;6.80;1.00;;;;;;5094139;28;20657;-70
2021/03/26 05:54:00;;;;;;;31.67;19.85;;;6.80;99.90;;;;;;5093649;28;20226;-71
2021/03/26 05:56:39;;;;;;;31.92;20.25;;;6.70;1.00;;;;;;5093689;28;20152;-70
2021/03/26 05:59:23;;;;;;;40.25;20.05;;;6.70;90.90;;;;;;5093899;28;20259;-70
2021/03/26 06:02:04;;;;;;;41.13;21.33;;;6.80;99.90;;;;;;5093686;28;20246;-71
2021/03/26 06:05:00;;;;;;;31.10;20.42;;;6.90;1.00;;;;;;5093512;28;20541;-70
2021/03/26 06:07:40;;;;;;;28.00;20.38;;;6.90;99.90;;;;;;5093674;28;20152;-71
2021/03/26 06:10:20;;;;;;;30.75;20.02;;;7.00;99.90;;;;;;5093273;28;20160;-71
2021/03/26 06:13:20;;;;;;;30.33;19.40;;;7.10;99.90;;;;;;5093395;28;20516;-71
2021/03/26 06:16:02;;;;;;;28.60;19.63;;;7.20;53.10;;;;;;5093376;28;20518;-71
2021/03/26 06:19:12;;;;;;;33.92;21.45;;;7.20;17.30;;;;;;5093682;28;20166;-70
2021/03/26 06:21:38;;;;;;;33.13;21.55;;;7.40;99.90;;;;;;5084208;28;20185;-70
2021/03/26 06:24:41;;;;;;;34.60;20.97;;;7.70;1.00;;;;;;5093501;28;20262;-69
2021/03/26 06:27:14;;;;;;;31.52;20.38;;;8.00;99.90;;;;;;5011899;28;20457;-70
2021/03/26 06:30:07;;;;;;;39.97;21.73;;;8.10;1.00;;;;;;5082034;28;20187;-71
2021/03/26 06:32:41;;;;;;;25.98;20.05;;;8.30;1.00;;;;;;5092542;28;20820;-70
2021/03/26 06:35:24;;;;;;;29.50;20.33;;;8.50;99.90;;;;;;5092911;28;20155;-71
2021/03/26 06:38:20;;;;;;;32.00;20.70;;;8.60;99.90;;;;;;5093083;28;20165;-71
2021/03/26 06:41:31;;;;;;;34.03;21.73;;;8.60;99.90;;;;;;5091491;28;20173;-71
2021/03/26 06:44:05;;;;;;;34.65;20.58;;;8.60;99.90;;;;;;5072441;28;20531;-71
2021/03/26 06:46:44;;;;;;;33.92;22.33;;;8.80;99.90;;;;;;5092722;28;20574;-70
2021/03/26 06:49:28;;;;;;;37.75;21.90;;;8.80;99.90;;;;;;5093020;28;20258;-71
2021/03/26 06:52:16;;;;;;;50.03;23.52;;;8.90;99.90;;;;;;5092786;28;20206;-71
2021/03/26 06:55:00;;;;;;;39.67;21.58;;;9.00;99.90;;;;;;5092660;28;20144;-71
2021/03/26 06:57:43;;;;;;;36.67;21.42;;;9.10;99.90;;;;;;5092269;28;20170;-71
2021/03/26 07:00:34;;;;;;;32.05;22.50;;;9.00;99.90;;;;;;5092606;28;20159;-70
2021/03/26 07:03:36;;;;;;;34.50;21.63;;;9.10;99.90;;;;;;5092666;28;20215;-69
2021/03/26 07:06:40;;;;;;;38.37;24.53;;;9.20;99.90;;;;;;5092367;28;20171;-70
2021/03/26 07:09:20;;;;;;;43.27;23.97;;;9.00;99.90;;;;;;5095437;28;20781;-69
2021/03/26 07:11:58;;;;;;;36.75;23.85;;;9.10;99.90;;;;;;5096642;28;20381;-69
2021/03/26 07:14:51;;;;;;;39.20;23.35;;;9.20;99.90;;;;;;5096989;28;20157;-69
2021/03/26 07:17:36;;;;;;;37.78;22.80;;;9.30;99.90;;;;;;5096952;28;20639;-69
2021/03/26 07:20:38;;;;;;;38.60;24.33;;;9.40;99.90;;;;;;5096578;28;20644;-69
2021/03/26 07:23:35;;;;;;;37.13;23.83;;;9.50;99.90;;;;;;5096561;28;20510;-70
2021/03/26 07:26:12;;;;;;;38.73;24.60;;;9.50;99.90;;;;;;5096425;28;20155;-70
2021/03/26 07:28:47;;;;;;;34.80;23.30;;;9.60;99.90;;;;;;5096749;28;20406;-70
2021/03/26 07:31:41;;;;;;;32.50;22.10;;;9.70;99.90;;;;;;5097691;28;20906;-69
2021/03/26 07:34:20;;;;;;;33.50;23.93;;;9.90;59.30;;;;;;5095031;28;20229;-70
2021/03/26 07:36:53;;;;;;;39.53;25.20;;;9.90;52.70;;;;;;5095484;28;20400;-70
2021/03/26 07:39:45;;;;;;;40.07;25.47;;;10.00;37.70;;;;;;5096875;28;20390;-70
2021/03/26 07:42:29;;;;;;;35.83;24.40;;;9.90;29.60;;;;;;5096636;28;20427;-70
2021/03/26 07:45:28;;;;;;;35.20;23.50;;;9.90;87.60;;;;;;5096436;28;20519;-70
2021/03/26 07:48:12;;;;;;;36.00;24.50;;;10.00;58.60;;;;;;5096614;28;20369;-72
2021/03/26 07:50:57;;;;;;;37.90;25.75;;;9.90;59.80;;;;;;5097588;28;20538;-69
2021/03/26 07:53:54;;;;;;;41.40;25.10;;;10.10;40.20;;;;;;5096872;28;20225;-70
2021/03/26 07:56:50;;;;;;;38.00;24.43;;;10.30;21.60;;;;;;5096350;28;20386;-70
2021/03/26 07:59:34;;;;;;;37.00;26.20;;;10.40;1.00;;;;;;5097263;28;20397;-70
2021/03/26 08:02:37;;;;;;;40.30;26.23;;;10.30;1.00;;;;;;5095880;28;20516;-69
2021/03/26 08:05:13;;;;;;;45.53;26.97;;;10.50;1.00;;;;;;5096003;28;20409;-70
2021/03/26 08:08:16;;;;;;;40.13;25.55;;;10.50;1.00;;;;;;5096075;28;20391;-70
2021/03/26 08:11:20;;;;;;;43.13;26.13;;;10.70;1.00;;;;;;5095890;28;20166;-70
2021/03/26 08:13:54;;;;;;;38.50;24.43;;;10.80;1.00;;;;;;5054026;28;20475;-70
2021/03/26 08:16:38;;;;;;;39.80;25.20;;;10.90;1.00;;;;;;5095779;28;20388;-70
2021/03/26 08:19:31;;;;;;;35.20;22.33;;;10.90;1.00;;;;;;5094159;28;20715;-70
2021/03/26 08:22:20;;;;;;;34.00;23.60;;;10.90;1.00;;;;;;5095666;28;20424;-70
2021/03/26 08:24:54;;;;;;;39.00;24.73;;;11.10;1.00;;;;;;5095627;28;20465;-69
2021/03/26 08:27:26;;;;;;;35.40;23.50;;;11.30;1.00;;;;;;5095212;28;20386;-70
2021/03/26 08:30:30;;;;;;;34.10;24.33;;;11.50;1.00;;;;;;5095268;28;20372;-71
2021/03/26 08:33:36;;;;;;;39.93;24.77;;;11.80;1.00;;;;;;5053564;28;20884;-71
2021/03/26 08:36:07;;;;;;;34.80;24.30;;;11.90;1.00;;;;;;5095054;28;20393;-70
2021/03/26 08:39:02;;;;;;;38.93;23.43;;;12.10;1.00;;;;;;5095027;28;20421;-70
2021/03/26 08:41:33;;;;;;;37.90;21.90;;;12.10;1.00;;;;;;5095490;28;20750;-70
2021/03/26 08:43:59;;;;;;;33.43;20.93;;;12.30;1.00;;;;;;5095448;28;20508;-70
2021/03/26 08:46:29;;;;;;;33.67;20.53;;;12.30;1.00;;;;;;5094970;28;20432;-70
2021/03/26 08:49:23;;;;;;;34.50;22.50;;;12.10;1.00;;;;;;5095293;28;20811;-70
2021/03/26 08:51:55;;;;;;;29.73;21.27;;;12.20;1.00;;;;;;5094309;28;20376;-69
2021/03/26 08:54:48;;;;;;;35.20;22.53;;;12.50;1.00;;;;;;5094651;28;20481;-69
2021/03/26 08:57:35;;;;;;;35.70;21.93;;;12.50;1.00;;;;;;5094799;28;20443;-70
2021/03/26 09:00:38;;;;;;;32.97;21.23;;;12.90;1.00;;;;;;5094693;28;20769;-70
2021/03/26 09:03:31;;;;;;;30.77;20.00;;;13.10;1.00;;;;;;5094617;28;20519;-71
2021/03/26 09:06:18;;;;;;;27.63;19.17;;;13.10;1.00;;;;;;5094323;28;20496;-70
2021/03/26 09:09:20;;;;;;;27.27;18.13;;;13.10;1.00;;;;;;5095117;28;20421;-71
2021/03/26 09:12:06;;;;;;;32.97;18.70;;;13.10;1.00;;;;;;5094410;28;20408;-71
2021/03/26 09:14:44;;;;;;;27.07;19.50;;;13.20;1.00;;;;;;5094366;28;20396;-68
2021/03/26 09:17:22;;;;;;;27.97;19.37;;;13.30;1.00;;;;;;5094193;28;20461;-71
2021/03/26 09:20:02;;;;;;;28.90;17.87;;;13.10;1.00;;;;;;5094826;28;20711;-70
2021/03/26 09:22:47;;;;;;;32.37;19.73;;;13.10;1.00;;;;;;5094153;28;20506;-71
2021/03/26 09:25:40;;;;;;;25.70;18.60;;;13.50;1.00;;;;;;5092518;28;20467;-70
2021/03/26 09:28:12;;;;;;;29.60;18.33;;;13.60;1.00;;;;;;5094587;28;20862;-71
2021/03/26 09:30:44;;;;;;;22.83;17.27;;;13.60;1.00;;;;;;5094525;28;20793;-70
2021/03/26 09:33:17;;;;;;;25.90;17.50;;;13.50;1.00;;;;;;5094433;28;20569;-71
2021/03/26 09:35:51;;;;;;;25.07;18.27;;;13.60;1.00;;;;;;5094586;28;20440;-70
2021/03/26 09:38:34;;;;;;;22.87;16.17;;;13.90;1.00;;;;;;5094382;28;20386;-70
2021/03/26 09:41:26;;;;;;;27.80;17.70;;;13.80;1.00;;;;;;5094116;28;20396;-70
2021/03/26 09:44:33;;;;;;;25.13;17.33;;;13.60;1.00;;;;;;5093783;28;20554;-71
2021/03/26 09:47:05;;;;;;;22.60;15.70;;;13.90;1.00;;;;;;5083383;28;20505;-70
2021/03/26 09:49:45;;;;;;;22.60;16.70;;;14.30;1.00;;;;;;5093897;28;20413;-70
2021/03/26 09:52:32;;;;;;;24.57;16.60;;;14.50;1.00;;;;;;5093451;28;20460;-70
2021/03/26 09:55:06;;;;;;;22.07;14.10;;;14.50;1.00;;;;;;5093377;28;20389;-70
2021/03/26 09:58:10;;;;;;;22.67;15.23;;;14.40;1.00;;;;;;5093363;28;20406;-70
2021/03/26 10:00:54;;;;;;;26.57;16.57;;;14.60;1.00;;;;;;5093544;28;20409;-73
2021/03/26 10:03:31;;;;;;;21.23;14.77;;;14.50;1.00;;;;;;5092842;28;20472;-70
2021/03/26 10:06:09;;;;;;;24.87;16.10;;;14.70;1.00;;;;;;5093122;28;20720;-73
2021/03/26 10:11:25;;;;;;;22.87;15.53;;;14.70;1.00;;;;;;5093179;28;20484;-70
2021/03/26 10:14:08;;;;;;;27.47;16.07;;;14.60;1.00;;;;;;5092717;28;20825;-70
2021/03/26 10:16:34;;;;;;;26.37;15.77;;;14.80;1.00;;;;;;5094046;28;20405;-72
2021/03/26 10:19:24;;;;;;;28.10;14.40;;;15.50;1.00;;;;;;5093418;28;20976;-71
2021/03/26 10:21:55;;;;;;;20.07;14.10;;;15.30;1.00;;;;;;5093014;28;20160;-71
2021/03/26 10:24:27;;;;;;;18.50;13.40;;;15.30;1.00;;;;;;5092914;28;20443;-71
2021/03/26 10:27:22;;;;;;;20.10;13.00;;;15.30;1.00;;;;;;5093287;28;20404;-72
2021/03/26 10:29:57;;;;;;;15.80;11.53;;;14.90;1.00;;;;;;5093072;28;20469;-71
2021/03/26 10:32:28;;;;;;;16.03;11.47;;;15.10;1.00;;;;;;5092693;28;20507;-72
2021/03/26 10:34:57;;;;;;;14.77;11.47;;;15.00;1.00;;;;;;5093311;28;20515;-70
2021/03/26 10:37:57;;;;;;;15.70;11.40;;;15.00;1.00;;;;;;5092626;28;20405;-71
2021/03/26 10:40:32;;;;;;;14.33;10.40;;;15.20;1.00;;;;;;5093481;28;20935;-69
2021/03/26 10:43:04;;;;;;;9.40;8.20;;;15.30;1.00;;;;;;5091665;28;20424;-70
2021/03/26 10:45:41;;;;;;;17.37;10.30;;;15.30;1.00;;;;;;5091895;28;20980;-71
2021/03/26 10:48:44;;;;;;;12.83;9.37;;;15.10;1.00;;;;;;5091326;28;20404;-71
2021/03/26 10:51:18;;;;;;;13.30;9.10;;;15.20;1.00;;;;;;5092728;28;20909;-71
2021/03/26 10:54:14;;;;;;;16.23;8.93;;;15.10;1.00;;;;;;5093058;28;20457;-71
2021/03/26 10:56:51;;;;;;;16.27;10.23;;;15.90;1.00;;;;;;5092865;28;20384;-71
2021/03/26 10:59:35;;;;;;;15.63;8.63;;;15.90;1.00;;;;;;5093031;28;20428;-71
2021/03/26 11:02:25;;;;;;;9.60;7.03;;;16.40;1.00;;;;;;5090746;28;20450;-71
2021/03/26 11:05:05;;;;;;;13.23;8.50;;;16.60;1.00;;;;;;5092506;28;20848;-71
2021/03/26 11:07:41;;;;;;;12.60;6.97;;;16.50;99.90;;;;;;5092744;28;20749;-71
2021/03/26 11:10:11;;;;;;;12.53;7.17;;;16.60;99.90;;;;;;5090451;28;20421;-53
2021/03/26 11:12:44;;;;;;;11.40;6.57;;;16.90;1.00;;;;;;5092067;28;20461;-59
2021/03/26 11:15:44;;;;;;;10.57;6.60;;;16.80;99.90;;;;;;5092416;28;20581;-70
2021/03/26 11:18:18;;;;;;;21.83;13.83;;;16.90;99.90;;;;;;5092753;28;20416;-69
2021/03/26 11:21:15;;;;;;;8.70;5.53;;;17.30;99.90;;;;;;5092476;28;20384;-69
2021/03/26 11:23:52;;;;;;;13.60;8.07;;;17.40;99.90;;;;;;5075755;28;20961;-70
2021/03/26 11:26:33;;;;;;;11.13;7.57;;;17.50;99.90;;;;;;5092830;28;20397;-69
2021/03/26 11:29:18;;;;;;;7.87;5.53;;;17.50;99.90;;;;;;5093009;28;20765;-71
2021/03/26 11:31:52;;;;;;;17.77;6.40;;;17.40;99.90;;;;;;5092666;28;20883;-69
2021/03/26 11:34:36;;;;;;;9.83;6.00;;;17.40;99.90;;;;;;5092232;28;20401;-70
2021/03/26 11:37:14;;;;;;;6.03;4.60;;;17.60;99.90;;;;;;5092322;28;20408;-71
2021/03/26 11:39:51;;;;;;;7.40;4.60;;;17.70;99.90;;;;;;5092208;28;20789;-70
2021/03/26 11:42:16;;;;;;;9.67;5.80;;;17.40;99.90;;;;;;5092259;28;20442;-69
2021/03/26 11:44:51;;;;;;;5.40;4.17;;;17.80;99.90;;;;;;5092317;28;20500;-69
2021/03/26 11:47:26;;;;;;;10.97;5.57;;;18.00;99.90;;;;;;5091939;28;20160;-70
2021/03/26 11:50:24;;;;;;;4.90;3.80;;;18.10;99.90;;;;;;5090081;28;20482;-70
2021/03/26 11:53:07;;;;;;;8.27;5.30;;;18.00;99.90;;;;;;5086092;28;21020;-70
2021/03/26 11:55:37;;;;;;;7.93;4.13;;;18.00;99.90;;;;;;5095661;28;20460;-71
2021/03/26 11:58:27;;;;;;;7.50;3.80;;;18.30;99.90;;;;;;5095688;28;20405;-70
2021/03/26 12:01:04;;;;;;;14.90;6.30;;;18.00;99.90;;;;;;5095656;28;20383;-71
2021/03/26 12:03:52;;;;;;;7.93;5.20;;;18.40;99.90;;;;;;5095554;28;20437;-71
2021/03/26 12:06:39;;;;;;;6.90;4.73;;;18.40;99.90;;;;;;5095835;28;20417;-69
2021/03/26 12:09:20;;;;;;;6.93;5.43;;;18.40;99.90;;;;;;5095532;28;20916;-72
2021/03/26 12:12:09;;;;;;;6.13;4.80;;;18.70;99.90;;;;;;5095335;28;20393;-71
2021/03/26 12:14:56;;;;;;;7.67;4.63;;;18.20;99.90;;;;;;5096447;28;20485;-72
2021/03/26 12:17:35;;;;;;;5.50;4.13;;;17.90;99.90;;;;;;5096650;28;20387;-72
2021/03/26 12:20:18;;;;;;;6.63;4.83;;;17.80;99.90;;;;;;5095915;28;20415;-70
2021/03/26 12:23:00;;;;;;;9.73;4.93;;;17.70;99.90;;;;;;5095269;28;20853;-72
2021/03/26 12:25:39;;;;;;;9.93;5.00;;;17.30;99.90;;;;;;5093787;28;20433;-71
2021/03/26 12:28:16;;;;;;;5.20;3.93;;;17.80;99.90;;;;;;5095443;28;20730;-71
2021/03/26 12:31:09;;;;;;;11.03;3.67;;;17.50;99.90;;;;;;5093709;28;20419;-72
2021/03/26 12:33:48;;;;;;;6.40;3.90;;;17.60;99.90;;;;;;5094731;28;20865;-71
2021/03/26 12:36:40;;;;;;;4.70;3.50;;;17.80;99.90;;;;;;5094903;28;20386;-71
2021/03/26 12:39:12;;;;;;;5.23;3.03;;;17.40;99.90;;;;;;5094781;28;20406;-70
2021/03/26 12:42:05;;;;;;;5.17;3.50;;;17.70;99.90;;;;;;5095208;28;20378;-71
2021/03/26 12:44:37;;;;;;;8.13;3.67;;;17.30;99.90;;;;;;5095366;28;20411;-70
2021/03/26 12:47:22;;;;;;;7.17;4.07;;;17.20;99.90;;;;;;5095625;28;20388;-72
2021/03/26 12:49:59;;;;;;;6.60;4.43;;;17.90;99.90;;;;;;5100666;28;20440;-72
2021/03/26 12:52:31;;;;;;;9.53;5.00;;;18.40;99.90;;;;;;5105289;28;20451;-72
2021/03/26 12:55:16;;;;;;;5.50;3.30;;;19.10;99.90;;;;;;5104435;28;20460;-72
2021/03/26 12:58:11;;;;;;;9.80;4.47;;;19.30;99.90;;;;;;5102911;28;20394;-72
2021/03/26 13:00:41;;;;;;;5.57;4.40;;;18.70;99.90;;;;;;5105080;28;20877;-72
2021/03/26 13:03:22;;;;;;;4.60;4.00;;;18.20;99.90;;;;;;5103606;28;20438;-72
2021/03/26 13:06:00;;;;;;;7.40;4.47;;;18.30;99.90;;;;;;5096583;28;20443;-72
2021/03/26 13:08:29;;;;;;;5.73;4.13;;;17.90;99.90;;;;;;5094647;28;20447;-72
2021/03/26 13:11:03;;;;;;;7.00;3.90;;;17.70;99.90;;;;;;5094909;28;20479;-72
2021/03/26 13:13:40;;;;;;;6.80;3.90;;;18.00;99.90;;;;;;5094961;28;20467;-72
2021/03/26 13:16:26;;;;;;;9.13;3.73;;;18.10;99.90;;;;;;5094472;28;20497;-72
2021/03/26 13:18:52;;;;;;;8.63;5.00;;;18.30;99.90;;;;;;5094584;28;20471;-71
2021/03/26 13:21:30;;;;;;;5.70;3.60;;;18.40;99.90;;;;;;5094504;28;20912;-72
2021/03/26 13:24:27;;;;;;;4.23;3.07;;;18.10;99.90;;;;;;5094441;28;20326;-72
2021/03/26 13:27:22;;;;;;;11.23;3.60;;;18.00;99.90;;;;;;5094181;28;20490;-72
2021/03/26 13:30:13;;;;;;;4.90;3.67;;;18.30;99.90;;;;;;5076804;28;20435;-72
2021/03/26 13:33:01;;;;;;;6.87;3.80;;;18.60;99.90;;;;;;5092672;28;20475;-72
2021/03/26 13:35:41;;;;;;;9.33;4.27;;;19.00;99.90;;;;;;5093792;28;20393;-72
2021/03/26 13:38:28;;;;;;;7.83;4.17;;;18.10;99.90;;;;;;5093750;28;20482;-72
2021/03/26 13:40:55;;;;;;;5.23;3.60;;;18.30;99.90;;;;;;5094012;28;20412;-72
2021/03/26 13:43:26;;;;;;;5.00;3.10;;;18.90;99.90;;;;;;5093660;28;20523;-72
2021/03/26 13:46:02;;;;;;;6.90;3.27;;;18.70;99.90;;;;;;5093563;28;20388;-70
2021/03/26 13:48:39;;;;;;;5.17;3.10;;;19.30;99.90;;;;;;5094042;28;20390;-71